AUA668 EPWA-LOWW
Flight info
| Callsign | AUA668 |
|---|---|
| Flight time | 0h 54m |
| Altitude | 34000 |
| Route | EVINA7G EVINA DCT NAVUR DCT BAVOK DCT MIKOV MIKOV8W |
| Aircraft | A319/M-SDE3FGHIRWY/LB1 |
Departure
| Time | 2026-04-24 20:33 |
|---|---|
| Airport | Warsaw Chopin Airport (EPWA) |
Arrival
| Time | 2026-04-24 21:28 |
|---|---|
| Airport | Vienna International Airport (LOWW) |
| Time | Latitude | Longitude | Altitude | Speed | Heading |
|---|---|---|---|---|---|
| 2026-04-24 20:05 | 52.16998 | 20.97134 | 336 ft | 0 kts | 70° |
| 2026-04-24 20:28 | 52.16996 | 20.97126 | 339 ft | 3 kts | 70° |
| 2026-04-24 20:28 | 52.16987 | 20.97085 | 335 ft | 4 kts | 71° |
| 2026-04-24 20:28 | 52.16978 | 20.97045 | 334 ft | 4 kts | 79° |
| 2026-04-24 20:28 | 52.16979 | 20.97006 | 335 ft | 4 kts | 124° |
| 2026-04-24 20:29 | 52.16989 | 20.96989 | 335 ft | 2 kts | 153° |
| 2026-04-24 20:29 | 52.16994 | 20.96985 | 334 ft | 0 kts | 153° |
| 2026-04-24 20:31 | 52.16972 | 20.97002 | 335 ft | 11 kts | 154° |
| 2026-04-24 20:31 | 52.16867 | 20.97093 | 337 ft | 19 kts | 151° |
| 2026-04-24 20:31 | 52.16744 | 20.97201 | 335 ft | 21 kts | 152° |
| 2026-04-24 20:31 | 52.16615 | 20.97314 | 335 ft | 22 kts | 151° |
| 2026-04-24 20:32 | 52.16534 | 20.97517 | 339 ft | 22 kts | 114° |
| 2026-04-24 20:32 | 52.16469 | 20.97749 | 337 ft | 22 kts | 115° |
| 2026-04-24 20:32 | 52.16346 | 20.97755 | 339 ft | 20 kts | 206° |
| 2026-04-24 20:32 | 52.16328 | 20.97587 | 338 ft | 19 kts | 294° |
| 2026-04-24 20:33 | 52.16448 | 20.97164 | 334 ft | 81 kts | 294° |
| 2026-04-24 20:33 | 52.16786 | 20.95950 | 370 ft | 147 kts | 292° |
| 2026-04-24 20:33 | 52.17237 | 20.94400 | 1024 ft | 152 kts | 294° |
| 2026-04-24 20:33 | 52.17680 | 20.92834 | 1858 ft | 155 kts | 294° |
| 2026-04-24 20:34 | 52.17989 | 20.91729 | 2235 ft | 170 kts | 294° |
| 2026-04-24 20:34 | 52.18301 | 20.89750 | 2787 ft | 197 kts | 270° |
| 2026-04-24 20:34 | 52.18076 | 20.87411 | 3371 ft | 222 kts | 260° |
| 2026-04-24 20:34 | 52.17703 | 20.84820 | 4093 ft | 246 kts | 259° |
| 2026-04-24 20:35 | 52.17282 | 20.82053 | 5189 ft | 255 kts | 259° |
| 2026-04-24 20:35 | 52.16858 | 20.79216 | 6415 ft | 260 kts | 259° |
| 2026-04-24 20:35 | 52.16438 | 20.76313 | 7570 ft | 266 kts | 259° |
| 2026-04-24 20:35 | 52.15993 | 20.73353 | 8717 ft | 274 kts | 253° |
| 2026-04-24 20:36 | 52.15080 | 20.70581 | 9862 ft | 284 kts | 233° |
| 2026-04-24 20:36 | 52.13619 | 20.68347 | 10813 ft | 298 kts | 221° |
| 2026-04-24 20:36 | 52.11919 | 20.66171 | 11351 ft | 324 kts | 220° |
| 2026-04-24 20:36 | 52.10070 | 20.63841 | 11852 ft | 347 kts | 220° |
| 2026-04-24 20:37 | 52.08126 | 20.61405 | 12684 ft | 357 kts | 220° |
| 2026-04-24 20:37 | 52.06138 | 20.58917 | 13624 ft | 364 kts | 221° |
| 2026-04-24 20:37 | 52.04115 | 20.56384 | 14486 ft | 370 kts | 221° |
| 2026-04-24 20:37 | 52.02064 | 20.53814 | 15363 ft | 375 kts | 221° |
| 2026-04-24 20:38 | 51.99989 | 20.51211 | 16259 ft | 379 kts | 221° |
| 2026-04-24 20:38 | 51.97895 | 20.48584 | 17127 ft | 384 kts | 221° |
| 2026-04-24 20:38 | 51.95623 | 20.46222 | 17930 ft | 394 kts | 211° |
| 2026-04-24 20:38 | 51.93043 | 20.44564 | 18609 ft | 405 kts | 199° |
| 2026-04-24 20:39 | 51.90239 | 20.43758 | 19264 ft | 415 kts | 188° |
| 2026-04-24 20:39 | 51.87354 | 20.43351 | 19933 ft | 419 kts | 189° |
| 2026-04-24 20:39 | 51.84435 | 20.42925 | 20589 ft | 423 kts | 189° |
| 2026-04-24 20:39 | 51.81487 | 20.42478 | 21210 ft | 428 kts | 189° |
| 2026-04-24 20:40 | 51.78510 | 20.42017 | 21818 ft | 432 kts | 189° |
| 2026-04-24 20:40 | 51.75502 | 20.41548 | 22411 ft | 436 kts | 190° |
| 2026-04-24 20:40 | 51.72466 | 20.41080 | 22988 ft | 440 kts | 190° |
| 2026-04-24 20:40 | 51.69399 | 20.40613 | 23533 ft | 445 kts | 190° |
| 2026-04-24 20:41 | 51.66305 | 20.40144 | 24002 ft | 448 kts | 190° |
| 2026-04-24 20:41 | 51.63186 | 20.39672 | 24468 ft | 452 kts | 190° |
| 2026-04-24 20:41 | 51.60043 | 20.39197 | 24918 ft | 455 kts | 190° |
| 2026-04-24 20:41 | 51.56920 | 20.38724 | 25361 ft | 458 kts | 190° |
| 2026-04-24 20:42 | 51.53732 | 20.38243 | 25814 ft | 462 kts | 190° |
| 2026-04-24 20:42 | 51.50477 | 20.37754 | 26268 ft | 465 kts | 190° |
| 2026-04-24 20:42 | 51.47241 | 20.37270 | 26698 ft | 469 kts | 190° |
| 2026-04-24 20:42 | 51.43994 | 20.36754 | 27090 ft | 470 kts | 193° |
| 2026-04-24 20:43 | 51.40804 | 20.35679 | 27504 ft | 467 kts | 202° |
| 2026-04-24 20:43 | 51.37778 | 20.33864 | 27918 ft | 463 kts | 211° |
| 2026-04-24 20:43 | 51.34988 | 20.31357 | 28324 ft | 458 kts | 220° |
| 2026-04-24 20:43 | 51.32435 | 20.28331 | 28723 ft | 457 kts | 224° |
| 2026-04-24 20:44 | 51.29895 | 20.25239 | 29103 ft | 460 kts | 224° |
| 2026-04-24 20:44 | 51.27366 | 20.22183 | 29495 ft | 463 kts | 224° |
| 2026-04-24 20:44 | 51.24779 | 20.19081 | 29868 ft | 466 kts | 223° |
| 2026-04-24 20:44 | 51.22173 | 20.15968 | 30170 ft | 470 kts | 223° |
| 2026-04-24 20:45 | 51.19551 | 20.12841 | 30518 ft | 471 kts | 223° |
| 2026-04-24 20:45 | 51.16931 | 20.09722 | 30988 ft | 469 kts | 224° |
| 2026-04-24 20:45 | 51.14322 | 20.06615 | 31468 ft | 467 kts | 224° |
| 2026-04-24 20:45 | 51.11727 | 20.03522 | 31952 ft | 466 kts | 224° |
| 2026-04-24 20:46 | 51.09135 | 20.00436 | 32446 ft | 465 kts | 224° |
| 2026-04-24 20:46 | 51.06551 | 19.97362 | 32937 ft | 463 kts | 224° |
| 2026-04-24 20:46 | 51.03972 | 19.94302 | 33382 ft | 462 kts | 224° |
| 2026-04-24 20:46 | 51.01462 | 19.91155 | 33843 ft | 456 kts | 229° |
| 2026-04-24 20:47 | 50.99265 | 19.87581 | 33986 ft | 452 kts | 235° |
| 2026-04-24 20:47 | 50.97145 | 19.83834 | 34008 ft | 460 kts | 235° |
| 2026-04-24 20:47 | 50.92837 | 19.76248 | 34013 ft | 464 kts | 235° |
| 2026-04-24 20:48 | 50.88496 | 19.68657 | 34016 ft | 465 kts | 234° |
| 2026-04-24 20:48 | 50.84138 | 19.61084 | 33987 ft | 465 kts | 234° |
| 2026-04-24 20:49 | 50.79780 | 19.53546 | 34029 ft | 464 kts | 234° |
| 2026-04-24 20:49 | 50.75419 | 19.46023 | 34030 ft | 464 kts | 234° |
| 2026-04-24 20:50 | 50.71055 | 19.38502 | 34026 ft | 464 kts | 234° |
| 2026-04-24 20:50 | 50.66693 | 19.31007 | 34008 ft | 464 kts | 234° |
| 2026-04-24 20:51 | 50.62316 | 19.23511 | 34030 ft | 465 kts | 234° |
| 2026-04-24 20:51 | 50.57931 | 19.16013 | 34034 ft | 466 kts | 234° |
| 2026-04-24 20:52 | 50.53539 | 19.08516 | 34042 ft | 466 kts | 234° |
| 2026-04-24 20:52 | 50.49164 | 19.01086 | 34047 ft | 466 kts | 234° |
| 2026-04-24 20:53 | 50.44802 | 18.93740 | 34058 ft | 444 kts | 234° |
| 2026-04-24 20:53 | 50.42732 | 18.90284 | 34055 ft | 425 kts | 234° |
| 2026-04-24 20:53 | 50.40749 | 18.86967 | 34054 ft | 408 kts | 235° |
| 2026-04-24 20:54 | 50.38848 | 18.83778 | 34052 ft | 392 kts | 236° |
| 2026-04-24 20:54 | 50.37025 | 18.80710 | 34051 ft | 377 kts | 236° |
| 2026-04-24 20:54 | 50.35274 | 18.77761 | 34051 ft | 364 kts | 236° |
| 2026-04-24 20:54 | 50.33582 | 18.74912 | 34051 ft | 352 kts | 237° |
| 2026-04-24 20:55 | 50.30303 | 18.69380 | 34057 ft | 344 kts | 237° |
| 2026-04-24 20:55 | 50.27053 | 18.63909 | 34056 ft | 343 kts | 236° |
| 2026-04-24 20:56 | 50.23796 | 18.58447 | 34053 ft | 343 kts | 236° |
| 2026-04-24 20:56 | 50.20529 | 18.53002 | 34053 ft | 344 kts | 236° |
| 2026-04-24 20:57 | 50.17258 | 18.47562 | 34054 ft | 344 kts | 236° |
| 2026-04-24 20:57 | 50.13986 | 18.42130 | 34054 ft | 343 kts | 236° |
| 2026-04-24 20:58 | 50.10732 | 18.36757 | 34051 ft | 343 kts | 236° |
| 2026-04-24 20:58 | 50.07451 | 18.31346 | 34031 ft | 344 kts | 235° |
| 2026-04-24 20:59 | 50.04168 | 18.25932 | 34035 ft | 344 kts | 235° |
| 2026-04-24 20:59 | 50.00876 | 18.20525 | 34038 ft | 345 kts | 235° |
| 2026-04-24 21:00 | 49.97254 | 18.15511 | 34039 ft | 350 kts | 229° |
| 2026-04-24 21:00 | 49.93559 | 18.10587 | 34041 ft | 350 kts | 230° |
| 2026-04-24 21:01 | 49.89863 | 18.05660 | 34039 ft | 351 kts | 229° |
| 2026-04-24 21:01 | 49.86129 | 18.00693 | 34086 ft | 364 kts | 229° |
| 2026-04-24 21:02 | 49.84193 | 17.98109 | 34072 ft | 380 kts | 228° |
| 2026-04-24 21:02 | 49.82150 | 17.95390 | 34071 ft | 394 kts | 228° |
| 2026-04-24 21:02 | 49.80031 | 17.92575 | 34073 ft | 408 kts | 228° |
| 2026-04-24 21:02 | 49.77876 | 17.89625 | 34072 ft | 420 kts | 229° |
| 2026-04-24 21:03 | 49.75660 | 17.86575 | 34074 ft | 433 kts | 228° |
| 2026-04-24 21:03 | 49.73354 | 17.83477 | 34074 ft | 445 kts | 227° |
| 2026-04-24 21:03 | 49.70971 | 17.80337 | 34064 ft | 456 kts | 226° |
| 2026-04-24 21:03 | 49.68512 | 17.77145 | 34065 ft | 467 kts | 226° |
| 2026-04-24 21:04 | 49.63477 | 17.70653 | 34053 ft | 474 kts | 226° |
| 2026-04-24 21:04 | 49.58422 | 17.64107 | 34058 ft | 475 kts | 226° |
| 2026-04-24 21:05 | 49.53383 | 17.57537 | 34051 ft | 474 kts | 226° |
| 2026-04-24 21:05 | 49.48341 | 17.50972 | 34057 ft | 475 kts | 226° |
| 2026-04-24 21:06 | 49.43287 | 17.44433 | 34051 ft | 471 kts | 226° |
| 2026-04-24 21:06 | 49.40801 | 17.41232 | 33516 ft | 463 kts | 226° |
| 2026-04-24 21:06 | 49.38349 | 17.38073 | 32844 ft | 457 kts | 226° |
| 2026-04-24 21:07 | 49.35931 | 17.34956 | 32189 ft | 452 kts | 226° |
| 2026-04-24 21:07 | 49.33536 | 17.31870 | 31528 ft | 447 kts | 225° |
| 2026-04-24 21:07 | 49.31165 | 17.28820 | 30906 ft | 443 kts | 225° |
| 2026-04-24 21:07 | 49.28816 | 17.25802 | 30297 ft | 439 kts | 225° |
| 2026-04-24 21:08 | 49.26486 | 17.22815 | 29623 ft | 435 kts | 225° |
| 2026-04-24 21:08 | 49.24174 | 17.19859 | 28926 ft | 431 kts | 225° |
| 2026-04-24 21:08 | 49.21880 | 17.16929 | 28251 ft | 428 kts | 225° |
| 2026-04-24 21:08 | 49.19605 | 17.14024 | 27582 ft | 424 kts | 225° |
| 2026-04-24 21:09 | 49.17380 | 17.11185 | 26950 ft | 420 kts | 225° |
| 2026-04-24 21:09 | 49.15113 | 17.08297 | 26301 ft | 417 kts | 225° |
| 2026-04-24 21:09 | 49.12890 | 17.05464 | 25672 ft | 418 kts | 224° |
| 2026-04-24 21:09 | 49.10581 | 17.02504 | 25067 ft | 448 kts | 224° |
| 2026-04-24 21:10 | 49.08160 | 16.99403 | 24475 ft | 458 kts | 224° |
| 2026-04-24 21:10 | 49.05684 | 16.96256 | 23867 ft | 467 kts | 223° |
| 2026-04-24 21:10 | 49.03181 | 16.93098 | 23186 ft | 467 kts | 223° |
| 2026-04-24 21:10 | 49.00687 | 16.89962 | 22461 ft | 463 kts | 223° |
| 2026-04-24 21:11 | 48.98176 | 16.86922 | 21757 ft | 460 kts | 218° |
| 2026-04-24 21:11 | 48.95365 | 16.84730 | 21071 ft | 462 kts | 203° |
| 2026-04-24 21:11 | 48.92282 | 16.83356 | 20396 ft | 460 kts | 198° |
| 2026-04-24 21:11 | 48.89207 | 16.82073 | 19738 ft | 456 kts | 198° |
| 2026-04-24 21:12 | 48.86154 | 16.80819 | 19099 ft | 453 kts | 198° |
| 2026-04-24 21:12 | 48.84108 | 16.79994 | 18673 ft | 450 kts | 197° |
| 2026-04-24 21:12 | 48.80009 | 16.78770 | 17764 ft | 447 kts | 193° |
| 2026-04-24 21:12 | 48.76958 | 16.77959 | 17210 ft | 443 kts | 192° |
| 2026-04-24 21:13 | 48.73916 | 16.77191 | 17014 ft | 443 kts | 192° |
| 2026-04-24 21:13 | 48.70877 | 16.76435 | 17058 ft | 443 kts | 192° |
| 2026-04-24 21:13 | 48.67805 | 16.75897 | 17042 ft | 447 kts | 182° |
| 2026-04-24 21:13 | 48.64692 | 16.76045 | 17055 ft | 448 kts | 179° |
| 2026-04-24 21:14 | 48.61575 | 16.76231 | 16801 ft | 448 kts | 179° |
| 2026-04-24 21:14 | 48.58499 | 16.76422 | 16167 ft | 435 kts | 179° |
| 2026-04-24 21:14 | 48.55513 | 16.76612 | 15555 ft | 424 kts | 179° |
| 2026-04-24 21:14 | 48.52607 | 16.76802 | 14952 ft | 412 kts | 179° |
| 2026-04-24 21:15 | 48.49781 | 16.76991 | 14349 ft | 399 kts | 179° |
| 2026-04-24 21:15 | 48.47105 | 16.77166 | 13869 ft | 382 kts | 179° |
| 2026-04-24 21:15 | 48.44504 | 16.77330 | 13356 ft | 367 kts | 179° |
| 2026-04-24 21:15 | 48.42002 | 16.77485 | 12816 ft | 353 kts | 179° |
| 2026-04-24 21:16 | 48.39586 | 16.77637 | 12324 ft | 342 kts | 179° |
| 2026-04-24 21:16 | 48.37245 | 16.77784 | 11826 ft | 332 kts | 179° |
| 2026-04-24 21:16 | 48.34968 | 16.77925 | 11333 ft | 323 kts | 179° |
| 2026-04-24 21:16 | 48.32745 | 16.78064 | 10852 ft | 318 kts | 180° |
| 2026-04-24 21:17 | 48.30547 | 16.78200 | 10373 ft | 315 kts | 180° |
| 2026-04-24 21:17 | 48.28370 | 16.78335 | 9888 ft | 311 kts | 180° |
| 2026-04-24 21:17 | 48.26224 | 16.78628 | 9355 ft | 310 kts | 167° |
| 2026-04-24 21:17 | 48.24879 | 16.79435 | 9004 ft | 309 kts | 151° |
| 2026-04-24 21:18 | 48.22509 | 16.81759 | 8325 ft | 305 kts | 146° |
| 2026-04-24 21:18 | 48.20795 | 16.83554 | 7931 ft | 297 kts | 146° |
| 2026-04-24 21:18 | 48.19182 | 16.85428 | 7555 ft | 290 kts | 138° |
| 2026-04-24 21:18 | 48.17743 | 16.87499 | 7183 ft | 284 kts | 136° |
| 2026-04-24 21:19 | 48.16358 | 16.89563 | 6816 ft | 278 kts | 136° |
| 2026-04-24 21:19 | 48.15010 | 16.91597 | 6455 ft | 273 kts | 136° |
| 2026-04-24 21:19 | 48.13690 | 16.93606 | 6084 ft | 269 kts | 135° |
| 2026-04-24 21:19 | 48.12370 | 16.95513 | 5987 ft | 262 kts | 144° |
| 2026-04-24 21:20 | 48.09104 | 16.97527 | 5554 ft | 247 kts | 172° |
| 2026-04-24 21:20 | 48.07430 | 16.97404 | 5307 ft | 242 kts | 200° |
| 2026-04-24 21:20 | 48.05823 | 16.96626 | 5056 ft | 243 kts | 205° |
| 2026-04-24 21:21 | 48.04250 | 16.95720 | 4803 ft | 240 kts | 212° |
| 2026-04-24 21:21 | 48.03061 | 16.94078 | 4430 ft | 231 kts | 245° |
| 2026-04-24 21:21 | 48.02571 | 16.91855 | 4051 ft | 225 kts | 263° |
| 2026-04-24 21:21 | 48.02300 | 16.89555 | 3668 ft | 224 kts | 265° |
| 2026-04-24 21:22 | 48.02060 | 16.87295 | 3293 ft | 217 kts | 265° |
| 2026-04-24 21:22 | 48.02024 | 16.85120 | 3029 ft | 202 kts | 284° |
| 2026-04-24 21:22 | 48.02497 | 16.83193 | 3005 ft | 197 kts | 300° |
| 2026-04-24 21:22 | 48.02900 | 16.81974 | 3008 ft | 198 kts | 299° |
| 2026-04-24 21:23 | 48.03705 | 16.79531 | 3011 ft | 198 kts | 299° |
| 2026-04-24 21:23 | 48.04311 | 16.77687 | 3009 ft | 198 kts | 299° |
| 2026-04-24 21:23 | 48.04902 | 16.75887 | 3021 ft | 184 kts | 299° |
| 2026-04-24 21:23 | 48.05440 | 16.74247 | 2950 ft | 168 kts | 299° |
| 2026-04-24 21:24 | 48.05778 | 16.73215 | 2857 ft | 161 kts | 299° |
| 2026-04-24 21:24 | 48.06265 | 16.71734 | 2683 ft | 157 kts | 299° |
| 2026-04-24 21:24 | 48.06744 | 16.70276 | 2483 ft | 156 kts | 299° |
| 2026-04-24 21:24 | 48.07196 | 16.68896 | 2289 ft | 140 kts | 299° |
| 2026-04-24 21:25 | 48.07606 | 16.67645 | 2103 ft | 130 kts | 299° |
| 2026-04-24 21:25 | 48.07995 | 16.66456 | 1933 ft | 126 kts | 299° |
| 2026-04-24 21:25 | 48.08379 | 16.65287 | 1772 ft | 125 kts | 299° |
| 2026-04-24 21:25 | 48.08760 | 16.64121 | 1601 ft | 124 kts | 299° |
| 2026-04-24 21:26 | 48.09134 | 16.62978 | 1432 ft | 123 kts | 300° |
| 2026-04-24 21:26 | 48.09508 | 16.61837 | 1270 ft | 122 kts | 298° |
| 2026-04-24 21:26 | 48.09878 | 16.60703 | 1102 ft | 121 kts | 297° |
| 2026-04-24 21:26 | 48.10249 | 16.59570 | 950 ft | 121 kts | 296° |
| 2026-04-24 21:27 | 48.10616 | 16.58446 | 785 ft | 120 kts | 296° |
| 2026-04-24 21:27 | 48.10980 | 16.57327 | 631 ft | 117 kts | 297° |
| 2026-04-24 21:27 | 48.11286 | 16.56393 | 618 ft | 79 kts | 295° |
| 2026-04-24 21:27 | 48.11484 | 16.55788 | 614 ft | 55 kts | 296° |
| 2026-04-24 21:28 | 48.11635 | 16.55389 | 614 ft | 36 kts | 311° |
| 2026-04-24 21:28 | 48.11796 | 16.55157 | 614 ft | 13 kts | 335° |
| 2026-04-24 21:28 | 48.11836 | 16.55142 | 619 ft | 0 kts | 352° |
| 2026-04-24 21:29 | 48.11856 | 16.55155 | 609 ft | 6 kts | 38° |
| 2026-04-24 21:29 | 48.11869 | 16.55239 | 615 ft | 11 kts | 100° |
| 2026-04-24 21:29 | 48.11824 | 16.55385 | 618 ft | 20 kts | 116° |
| 2026-04-24 21:30 | 48.11769 | 16.55585 | 617 ft | 21 kts | 111° |
| 2026-04-24 21:30 | 48.11715 | 16.55801 | 618 ft | 23 kts | 110° |
| 2026-04-24 21:30 | 48.11639 | 16.56007 | 621 ft | 23 kts | 124° |
| 2026-04-24 21:30 | 48.11553 | 16.56214 | 611 ft | 24 kts | 119° |
| 2026-04-24 21:31 | 48.11477 | 16.56445 | 615 ft | 25 kts | 114° |
| 2026-04-24 21:31 | 48.11400 | 16.56688 | 616 ft | 26 kts | 115° |
| 2026-04-24 21:31 | 48.11320 | 16.56934 | 612 ft | 27 kts | 116° |
| 2026-04-24 21:31 | 48.11235 | 16.57186 | 614 ft | 28 kts | 117° |
| 2026-04-24 21:32 | 48.11207 | 16.57328 | 614 ft | 4 kts | 4° |
| 2026-04-24 21:32 | 48.11270 | 16.57311 | 609 ft | 18 kts | 6° |
| 2026-04-24 21:32 | 48.11398 | 16.57393 | 621 ft | 21 kts | 26° |
| 2026-04-24 21:32 | 48.11538 | 16.57458 | 623 ft | 22 kts | 353° |
| 2026-04-24 21:33 | 48.11691 | 16.57395 | 619 ft | 23 kts | 343° |
| 2026-04-24 21:33 | 48.11829 | 16.57293 | 616 ft | 22 kts | 300° |
| 2026-04-24 21:33 | 48.11872 | 16.57088 | 613 ft | 19 kts | 297° |
| 2026-04-24 21:33 | 48.11849 | 16.57002 | 609 ft | 10 kts | 205° |
| 2026-04-24 21:34 | 48.11825 | 16.56984 | 617 ft | 0 kts | 206° |